Time;durP1;ratioP1;P1;durP2;ratioP2;P2;SDS_P1;SDS_P2;PMS_P1;PMS_P2;Temp;Humidity;BMP_temperature;BMP_pressure;BME280_temperature;BME280_humidity;BME280_pressure;Samples;Min_cycle;Max_cycle;Signal;HPM_P1;HPM_P2
2021/10/11 00:00:58;;;;;;;20.40;11.10;;;5.70;99.90;;;;;;5093244;28;20456;-58
2021/10/11 00:03:28;;;;;;;16.30;10.17;;;5.70;99.90;;;;;;5078013;28;20568;-58
2021/10/11 00:05:56;;;;;;;19.33;11.43;;;5.50;99.90;;;;;;5094371;28;20469;-58
2021/10/11 00:08:24;;;;;;;19.07;10.53;;;5.50;99.90;;;;;;5094207;28;20553;-58
2021/10/11 00:10:53;;;;;;;19.83;10.33;;;5.60;99.90;;;;;;5097785;28;20447;-58
2021/10/11 00:13:22;;;;;;;17.60;10.40;;;5.70;99.90;;;;;;5110412;28;20445;-59
2021/10/11 00:15:50;;;;;;;16.20;10.03;;;5.60;99.90;;;;;;5094173;28;20449;-59
2021/10/11 00:18:19;;;;;;;21.33;10.83;;;5.50;99.90;;;;;;5094126;28;21022;-58
2021/10/11 00:20:49;;;;;;;16.30;9.33;;;5.50;99.90;;;;;;5088903;28;20504;-59
2021/10/11 00:23:17;;;;;;;17.23;9.73;;;5.50;99.90;;;;;;5093494;28;20462;-58
2021/10/11 00:25:45;;;;;;;16.27;9.87;;;5.40;99.90;;;;;;5095112;28;20542;-60
2021/10/11 00:28:13;;;;;;;18.20;10.40;;;5.40;99.90;;;;;;5092978;28;20480;-58
2021/10/11 00:30:42;;;;;;;19.50;10.07;;;5.30;99.90;;;;;;5091886;28;20493;-59
2021/10/11 00:33:10;;;;;;;18.47;9.87;;;5.40;99.90;;;;;;5098703;27;20445;-58
2021/10/11 00:35:38;;;;;;;19.97;9.47;;;5.50;99.90;;;;;;5114141;28;20452;-59
2021/10/11 00:38:07;;;;;;;21.83;10.97;;;5.40;99.90;;;;;;5113591;28;20471;-58
2021/10/11 00:40:35;;;;;;;22.73;10.20;;;5.50;99.90;;;;;;5100953;28;20803;-59
2021/10/11 00:43:03;;;;;;;15.83;9.90;;;5.50;99.90;;;;;;5092224;28;20443;-59
2021/10/11 00:45:31;;;;;;;17.67;10.07;;;5.50;99.90;;;;;;5093499;28;20457;-58
2021/10/11 00:47:59;;;;;;;15.40;9.27;;;5.50;99.90;;;;;;5107772;28;20869;-58
2021/10/11 00:50:27;;;;;;;22.83;9.43;;;5.50;99.90;;;;;;5113853;28;20534;-59
2021/10/11 00:52:56;;;;;;;17.17;10.27;;;5.60;99.90;;;;;;5097208;28;20515;-58
2021/10/11 00:55:26;;;;;;;17.80;9.80;;;5.60;99.90;;;;;;5092928;28;20820;-59
2021/10/11 00:57:54;;;;;;;14.40;9.07;;;5.50;99.90;;;;;;5076425;28;20897;-59
2021/10/11 01:00:23;;;;;;;15.73;9.33;;;5.50;99.90;;;;;;5113527;28;20449;-58
2021/10/11 01:02:51;;;;;;;15.63;9.67;;;5.40;99.90;;;;;;5096349;28;20442;-58
2021/10/11 01:05:19;;;;;;;17.23;9.30;;;5.40;99.90;;;;;;5093136;28;20524;-59
2021/10/11 01:07:48;;;;;;;15.20;8.80;;;5.30;99.90;;;;;;5093065;28;20891;-59
2021/10/11 01:10:16;;;;;;;13.67;8.90;;;5.30;99.90;;;;;;5092016;28;21029;-58
2021/10/11 01:12:46;;;;;;;14.13;8.43;;;5.10;99.90;;;;;;5085657;28;20543;-59
2021/10/11 01:15:14;;;;;;;16.60;9.10;;;5.20;99.90;;;;;;5090300;28;20488;-58
2021/10/11 01:17:42;;;;;;;17.40;9.60;;;5.20;99.90;;;;;;5111815;28;20555;-59
2021/10/11 01:20:13;;;;;;;15.97;8.77;;;5.10;99.90;;;;;;5112775;28;20478;-59
2021/10/11 01:22:44;;;;;;;14.80;8.60;;;5.00;99.90;;;;;;5100279;28;20481;-59
2021/10/11 01:25:14;;;;;;;13.67;8.30;;;5.00;99.90;;;;;;5084413;28;20999;-59
2021/10/11 01:27:43;;;;;;;14.23;8.60;;;5.00;99.90;;;;;;5079545;28;20469;-59
2021/10/11 01:30:13;;;;;;;14.40;8.33;;;5.10;99.90;;;;;;5113154;27;20450;-58
2021/10/11 01:32:42;;;;;;;14.30;8.40;;;5.10;99.90;;;;;;5100587;28;20474;-59
2021/10/11 01:35:12;;;;;;;11.83;7.60;;;5.10;99.90;;;;;;5091270;28;20947;-59
2021/10/11 01:37:40;;;;;;;13.67;8.47;;;5.10;99.90;;;;;;5095927;28;20485;-59
2021/10/11 01:40:10;;;;;;;15.10;8.80;;;5.10;99.90;;;;;;5097081;27;20870;-59
2021/10/11 01:42:38;;;;;;;15.37;8.93;;;5.10;99.90;;;;;;5092175;28;20442;-60
2021/10/11 01:45:07;;;;;;;14.53;8.17;;;5.10;99.90;;;;;;5092449;28;20454;-59
2021/10/11 01:47:34;;;;;;;13.33;7.93;;;5.00;99.90;;;;;;5092066;28;20474;-59
2021/10/11 01:50:01;;;;;;;11.63;7.63;;;5.00;99.90;;;;;;5092191;28;20574;-59
2021/10/11 01:52:30;;;;;;;13.10;8.13;;;5.00;99.90;;;;;;5091403;28;21019;-59
2021/10/11 01:54:57;;;;;;;14.27;7.83;;;5.00;99.90;;;;;;5092157;28;20499;-59
2021/10/11 01:57:24;;;;;;;13.77;8.13;;;4.90;99.90;;;;;;5092133;28;20470;-59
2021/10/11 01:59:51;;;;;;;13.43;8.37;;;4.90;99.90;;;;;;5077869;28;20447;-59
2021/10/11 02:02:18;;;;;;;14.87;7.97;;;4.90;99.90;;;;;;5078849;28;20501;-59
2021/10/11 02:04:45;;;;;;;13.83;8.00;;;4.90;99.90;;;;;;5103676;28;20502;-59
2021/10/11 02:07:12;;;;;;;15.33;8.77;;;4.90;99.90;;;;;;5110663;28;20967;-58
2021/10/11 02:09:40;;;;;;;16.23;8.37;;;4.90;99.90;;;;;;5106945;28;20503;-59
2021/10/11 02:12:07;;;;;;;12.70;7.80;;;4.90;99.90;;;;;;5115027;28;21064;-59
2021/10/11 02:14:34;;;;;;;15.03;8.50;;;4.90;99.90;;;;;;5104979;28;20442;-59
2021/10/11 02:17:01;;;;;;;17.30;9.07;;;4.90;99.90;;;;;;5095000;28;20879;-59
2021/10/11 02:19:28;;;;;;;16.30;8.90;;;4.90;99.90;;;;;;5091049;28;20450;-59
2021/10/11 02:21:55;;;;;;;20.77;9.77;;;4.70;99.90;;;;;;5073654;28;20494;-59
2021/10/11 02:24:22;;;;;;;17.40;9.77;;;4.70;99.90;;;;;;5071469;28;20520;-59
2021/10/11 02:26:51;;;;;;;17.83;9.43;;;4.70;99.90;;;;;;5087335;28;20474;-59
2021/10/11 02:29:18;;;;;;;15.80;8.97;;;4.70;99.90;;;;;;5091515;28;20995;-58
2021/10/11 02:31:45;;;;;;;15.63;9.37;;;4.70;99.90;;;;;;5091168;28;20486;-59
2021/10/11 02:34:12;;;;;;;17.90;10.00;;;4.60;99.90;;;;;;5091335;28;20886;-58
2021/10/11 02:36:39;;;;;;;18.50;9.90;;;4.50;99.90;;;;;;5078804;28;20466;-59
2021/10/11 02:39:06;;;;;;;16.00;9.33;;;4.50;99.90;;;;;;5074433;28;20873;-59
2021/10/11 02:41:33;;;;;;;14.40;9.00;;;4.60;99.90;;;;;;5085414;28;20806;-59
2021/10/11 02:44:01;;;;;;;16.17;9.60;;;4.60;99.90;;;;;;5091978;28;20450;-59
2021/10/11 02:46:28;;;;;;;15.33;8.30;;;4.60;99.90;;;;;;5091486;28;20861;-59
2021/10/11 02:48:55;;;;;;;15.57;9.03;;;4.60;99.90;;;;;;5091627;28;20445;-59
2021/10/11 02:51:22;;;;;;;17.33;8.70;;;4.50;99.90;;;;;;5090315;28;20951;-59
2021/10/11 02:53:50;;;;;;;13.37;8.07;;;4.50;99.90;;;;;;5106101;28;20460;-59
2021/10/11 02:56:17;;;;;;;14.53;7.87;;;4.50;99.90;;;;;;5111506;28;20899;-59
2021/10/11 02:58:44;;;;;;;10.97;7.07;;;4.50;99.90;;;;;;5111959;28;20510;-59
2021/10/11 03:01:14;;;;;;;14.30;8.10;;;4.50;99.90;;;;;;5101047;28;20450;-59
2021/10/11 03:03:41;;;;;;;14.07;8.17;;;4.50;99.90;;;;;;5095446;28;20471;-59
2021/10/11 03:06:08;;;;;;;15.30;7.27;;;4.60;99.90;;;;;;5075072;28;20458;-59
2021/10/11 03:08:35;;;;;;;12.87;7.40;;;4.50;99.90;;;;;;5114843;28;20484;-58
2021/10/11 03:11:03;;;;;;;14.00;7.27;;;4.50;99.90;;;;;;5105176;28;20450;-59
2021/10/11 03:13:31;;;;;;;16.03;7.87;;;4.50;99.90;;;;;;5094593;28;20492;-59
2021/10/11 03:15:58;;;;;;;15.17;8.23;;;4.40;99.90;;;;;;5093940;28;20449;-59
2021/10/11 03:18:26;;;;;;;12.63;7.90;;;4.40;99.90;;;;;;5095253;28;20461;-59
2021/10/11 03:20:53;;;;;;;12.10;7.77;;;4.30;99.90;;;;;;5080281;28;20455;-59
2021/10/11 03:23:20;;;;;;;13.30;8.17;;;4.20;99.90;;;;;;5074789;28;20500;-59
2021/10/11 03:25:47;;;;;;;11.80;7.20;;;4.30;99.90;;;;;;5078604;28;20939;-59
2021/10/11 03:28:14;;;;;;;14.67;7.13;;;4.30;99.90;;;;;;5095292;28;20469;-59
2021/10/11 03:30:41;;;;;;;13.17;7.90;;;4.30;99.90;;;;;;5094992;28;20495;-59
2021/10/11 03:33:08;;;;;;;12.60;8.00;;;4.30;99.90;;;;;;5094990;28;20562;-59
2021/10/11 03:35:40;;;;;;;16.37;7.80;;;4.30;99.90;;;;;;5077733;28;20446;-59
2021/10/11 03:38:07;;;;;;;13.17;7.73;;;4.30;99.90;;;;;;5094646;28;20526;-59
2021/10/11 03:40:34;;;;;;;14.10;7.73;;;4.10;99.90;;;;;;5095728;28;20470;-59
2021/10/11 03:43:01;;;;;;;14.47;8.13;;;4.10;99.90;;;;;;5095881;28;20869;-59
2021/10/11 03:45:28;;;;;;;14.20;7.20;;;4.20;99.90;;;;;;5104863;28;20452;-58
2021/10/11 03:47:55;;;;;;;12.83;7.70;;;4.20;99.90;;;;;;5094726;28;20465;-58
2021/10/11 03:50:22;;;;;;;15.00;8.30;;;4.20;99.90;;;;;;5091697;28;20453;-58
2021/10/11 03:52:50;;;;;;;12.70;8.10;;;4.20;99.90;;;;;;5074321;28;20486;-59
2021/10/11 03:55:17;;;;;;;13.17;7.10;;;4.20;99.90;;;;;;5074775;28;20508;-59
2021/10/11 03:57:44;;;;;;;16.20;7.70;;;4.10;99.90;;;;;;5093691;28;20465;-59
2021/10/11 04:00:12;;;;;;;13.97;7.97;;;4.10;99.90;;;;;;5094348;28;20450;-59
2021/10/11 04:02:39;;;;;;;13.90;7.53;;;4.10;99.90;;;;;;5094584;28;20450;-59
2021/10/11 04:05:07;;;;;;;13.87;7.27;;;4.20;99.90;;;;;;5092707;28;20453;-59
2021/10/11 04:07:36;;;;;;;12.57;7.30;;;4.20;99.90;;;;;;5094240;28;20472;-59
2021/10/11 04:10:07;;;;;;;13.03;8.13;;;4.10;99.90;;;;;;5094473;28;20450;-59
2021/10/11 04:12:34;;;;;;;13.40;8.00;;;4.00;99.90;;;;;;5108123;28;20659;-59
2021/10/11 04:15:02;;;;;;;14.50;8.23;;;4.00;99.90;;;;;;5114265;28;20469;-59
2021/10/11 04:17:29;;;;;;;14.33;8.27;;;3.90;99.90;;;;;;5097908;28;20481;-58
2021/10/11 04:19:56;;;;;;;15.27;8.90;;;3.70;99.90;;;;;;5084218;28;20455;-58
2021/10/11 04:22:23;;;;;;;16.90;10.37;;;3.80;99.90;;;;;;5073880;28;20451;-58
2021/10/11 04:24:50;;;;;;;17.60;8.80;;;3.60;99.90;;;;;;5086329;28;20465;-58
2021/10/11 04:27:19;;;;;;;13.57;9.20;;;3.60;99.90;;;;;;5093647;28;20531;-58
2021/10/11 04:29:46;;;;;;;15.07;9.00;;;3.60;99.90;;;;;;5093982;28;20470;-59
2021/10/11 04:32:12;;;;;;;18.00;10.07;;;3.60;99.90;;;;;;5093538;28;20518;-58
2021/10/11 04:34:39;;;;;;;15.97;9.53;;;3.70;99.90;;;;;;5079708;28;20461;-58
2021/10/11 04:37:06;;;;;;;19.50;10.80;;;3.70;99.90;;;;;;5085790;28;20889;-58
2021/10/11 04:39:34;;;;;;;19.30;11.10;;;3.70;99.90;;;;;;5097070;28;20522;-58
2021/10/11 04:42:00;;;;;;;14.97;9.50;;;3.60;99.90;;;;;;5093372;28;20463;-58
2021/10/11 04:44:29;;;;;;;21.43;10.93;;;3.60;99.90;;;;;;5093656;28;20452;-58
2021/10/11 04:46:56;;;;;;;19.57;9.83;;;3.60;99.90;;;;;;5090955;28;20474;-58
2021/10/11 04:49:23;;;;;;;19.30;10.40;;;3.60;99.90;;;;;;5093547;28;20452;-58
2021/10/11 04:51:50;;;;;;;18.03;10.17;;;3.60;99.90;;;;;;5093429;28;20449;-58
2021/10/11 04:54:17;;;;;;;17.77;9.83;;;3.60;99.90;;;;;;5088645;28;20482;-59
2021/10/11 04:56:44;;;;;;;18.70;10.47;;;3.60;99.90;;;;;;5093615;28;20462;-58
2021/10/11 04:59:11;;;;;;;20.43;10.27;;;3.60;99.90;;;;;;5093373;28;20450;-58
2021/10/11 05:01:39;;;;;;;19.83;10.37;;;3.70;99.90;;;;;;5096869;28;20518;-58
2021/10/11 05:04:06;;;;;;;18.67;10.27;;;3.60;99.90;;;;;;5093332;28;20491;-58
2021/10/11 05:06:34;;;;;;;17.93;10.17;;;3.60;99.90;;;;;;5092780;28;20447;-58
2021/10/11 05:09:01;;;;;;;33.93;14.00;;;3.60;99.90;;;;;;5093189;28;20445;-59
2021/10/11 05:11:29;;;;;;;34.10;14.63;;;3.50;99.90;;;;;;5092969;28;20537;-59
2021/10/11 05:13:56;;;;;;;30.57;13.97;;;3.50;99.90;;;;;;5092864;28;20477;-59
2021/10/11 05:16:25;;;;;;;27.60;14.80;;;3.60;99.90;;;;;;5092600;28;20485;-59
2021/10/11 05:18:53;;;;;;;23.03;12.73;;;3.60;99.90;;;;;;5093137;28;20553;-59
2021/10/11 05:21:21;;;;;;;20.67;11.20;;;3.70;99.90;;;;;;5093905;28;20978;-59
2021/10/11 05:23:48;;;;;;;20.37;10.17;;;3.60;99.90;;;;;;5112367;28;20472;-59
2021/10/11 05:26:15;;;;;;;17.77;10.20;;;3.60;99.90;;;;;;5096796;28;21022;-58
2021/10/11 05:28:42;;;;;;;18.60;10.20;;;3.60;99.90;;;;;;5093111;28;20445;-58
2021/10/11 05:31:09;;;;;;;22.20;11.37;;;3.60;99.90;;;;;;5092634;28;20887;-57
2021/10/11 05:33:36;;;;;;;17.73;10.10;;;3.60;99.90;;;;;;5092833;28;20539;-58
2021/10/11 05:36:05;;;;;;;21.37;9.90;;;3.60;99.90;;;;;;5089828;28;20458;-58
2021/10/11 05:38:33;;;;;;;17.47;9.83;;;3.40;99.90;;;;;;5097177;28;20979;-58
2021/10/11 05:41:01;;;;;;;18.77;10.27;;;3.40;99.90;;;;;;5091210;28;20452;-58
2021/10/11 05:43:28;;;;;;;19.30;9.93;;;3.50;99.90;;;;;;5108118;28;20437;-59
2021/10/11 05:45:55;;;;;;;21.10;10.73;;;3.50;99.90;;;;;;5093600;28;20442;-58
2021/10/11 05:48:22;;;;;;;14.73;9.30;;;3.50;99.90;;;;;;5086992;28;20462;-58
2021/10/11 05:50:49;;;;;;;23.77;14.97;;;3.50;99.90;;;;;;5076388;28;20515;-58
2021/10/11 05:53:17;;;;;;;18.43;11.63;;;3.50;99.90;;;;;;5092366;28;20489;-58
2021/10/11 05:55:44;;;;;;;21.83;10.03;;;3.50;99.90;;;;;;5101819;28;20450;-58
2021/10/11 05:58:11;;;;;;;17.70;9.83;;;3.60;99.90;;;;;;5106516;28;20475;-58
2021/10/11 06:00:40;;;;;;;17.73;9.97;;;3.60;99.90;;;;;;5096721;28;20518;-58
2021/10/11 06:03:07;;;;;;;16.47;9.00;;;3.60;99.90;;;;;;5104958;28;20477;-58
2021/10/11 06:05:35;;;;;;;18.90;10.57;;;3.60;99.90;;;;;;5112325;28;20452;-58
2021/10/11 06:08:02;;;;;;;21.20;11.40;;;3.50;99.90;;;;;;5100849;28;20892;-58
2021/10/11 06:10:33;;;;;;;23.47;13.33;;;3.40;99.90;;;;;;5091074;28;20528;-59
2021/10/11 06:13:00;;;;;;;19.43;9.30;;;3.30;99.90;;;;;;5096489;28;20477;-58
2021/10/11 06:15:27;;;;;;;14.80;8.07;;;3.30;99.90;;;;;;5092055;28;20454;-59
2021/10/11 06:17:54;;;;;;;12.63;8.30;;;3.40;99.90;;;;;;5092076;28;20465;-58
2021/10/11 06:20:21;;;;;;;18.90;9.40;;;3.30;99.90;;;;;;5091732;28;20442;-58
2021/10/11 06:22:48;;;;;;;13.83;8.27;;;3.20;99.90;;;;;;5091244;28;20466;-59
2021/10/11 06:25:15;;;;;;;14.03;8.00;;;3.20;99.90;;;;;;5089573;28;20497;-58
2021/10/11 06:27:44;;;;;;;11.80;7.83;;;3.30;99.90;;;;;;5090779;28;20466;-58
2021/10/11 06:30:11;;;;;;;13.80;8.63;;;3.50;99.90;;;;;;5075747;28;20450;-58
2021/10/11 06:32:38;;;;;;;13.43;7.20;;;3.60;99.90;;;;;;5074324;28;20447;-59
2021/10/11 06:35:07;;;;;;;13.20;7.77;;;3.60;99.90;;;;;;5071481;28;20492;-58
2021/10/11 06:37:34;;;;;;;13.53;7.87;;;3.70;99.90;;;;;;5071444;28;20531;-59
2021/10/11 06:40:00;;;;;;;12.67;7.07;;;3.70;99.90;;;;;;5088098;28;20450;-58
2021/10/11 06:42:27;;;;;;;12.83;7.60;;;3.70;99.90;;;;;;5077590;28;20512;-59
2021/10/11 06:44:56;;;;;;;13.60;7.80;;;3.70;99.90;;;;;;5078720;28;20461;-58
2021/10/11 06:47:23;;;;;;;16.20;7.70;;;3.80;99.90;;;;;;5089312;28;20506;-58
2021/10/11 06:49:50;;;;;;;14.80;7.90;;;3.90;99.90;;;;;;5090217;28;20507;-59
2021/10/11 06:52:17;;;;;;;12.70;7.40;;;4.00;99.90;;;;;;5086990;28;20453;-58
2021/10/11 06:54:44;;;;;;;13.50;7.17;;;4.00;99.90;;;;;;5072907;28;20482;-58
2021/10/11 06:57:13;;;;;;;11.43;7.20;;;3.90;99.90;;;;;;5071077;28;20523;-58
2021/10/11 06:59:41;;;;;;;15.10;8.30;;;4.00;99.90;;;;;;5086411;28;20536;-58
2021/10/11 07:02:10;;;;;;;12.50;7.57;;;4.10;99.90;;;;;;5090639;28;20452;-58
2021/10/11 07:04:37;;;;;;;12.10;7.63;;;4.30;99.90;;;;;;5091327;28;20445;-58
2021/10/11 07:07:04;;;;;;;13.40;7.93;;;4.50;99.90;;;;;;5087274;28;20542;-59
2021/10/11 07:09:31;;;;;;;13.73;7.73;;;4.50;99.90;;;;;;5082433;28;20508;-59
2021/10/11 07:11:58;;;;;;;14.10;7.50;;;4.50;99.90;;;;;;5079764;28;21228;-59
2021/10/11 07:14:25;;;;;;;14.53;7.63;;;4.70;99.90;;;;;;5088032;28;20481;-59
2021/10/11 07:16:52;;;;;;;12.40;6.80;;;4.80;99.90;;;;;;5091169;28;20461;-59
2021/10/11 07:19:21;;;;;;;15.40;7.77;;;4.80;99.90;;;;;;5086773;28;20504;-58
2021/10/11 07:21:47;;;;;;;10.27;6.17;;;5.00;99.90;;;;;;5074116;28;20457;-59
2021/10/11 07:24:15;;;;;;;12.20;7.10;;;5.00;99.90;;;;;;5086914;28;20457;-58
2021/10/11 07:26:43;;;;;;;12.13;7.10;;;5.10;99.90;;;;;;5087040;28;20482;-58
2021/10/11 07:29:10;;;;;;;13.33;6.97;;;5.30;99.90;;;;;;5091151;28;20537;-58
2021/10/11 07:31:37;;;;;;;18.10;7.20;;;5.40;99.90;;;;;;5090860;28;20472;-59
2021/10/11 07:34:04;;;;;;;14.13;7.23;;;5.70;99.90;;;;;;5091595;28;20482;-59
2021/10/11 07:36:33;;;;;;;12.82;8.00;;;5.90;99.90;;;;;;5088179;28;20938;-59
2021/10/11 07:39:02;;;;;;;10.53;6.97;;;6.10;99.90;;;;;;5090976;28;20212;-59
2021/10/11 07:41:30;;;;;;;13.00;6.30;;;6.20;99.90;;;;;;5090785;28;20453;-59
2021/10/11 07:43:57;;;;;;;9.77;5.90;;;6.30;99.90;;;;;;5087357;28;20492;-59
2021/10/11 07:46:25;;;;;;;10.10;6.47;;;6.50;99.90;;;;;;5089460;28;20450;-59
2021/10/11 07:48:52;;;;;;;10.67;6.23;;;6.70;99.90;;;;;;5093300;28;20553;-59
2021/10/11 07:51:19;;;;;;;12.87;5.93;;;6.80;99.90;;;;;;5089538;28;20446;-59
2021/10/11 07:53:47;;;;;;;9.53;5.87;;;6.80;99.90;;;;;;5094400;28;20534;-58
2021/10/11 07:56:14;;;;;;;13.17;6.63;;;6.80;99.90;;;;;;5094084;28;20445;-59
2021/10/11 07:58:41;;;;;;;9.80;5.50;;;7.00;99.90;;;;;;5094218;28;20511;-59
2021/10/11 08:01:08;;;;;;;9.97;6.10;;;7.20;99.90;;;;;;5094110;28;20450;-60
2021/10/11 08:03:35;;;;;;;12.20;6.70;;;7.30;99.90;;;;;;5094448;28;20491;-59
2021/10/11 08:06:04;;;;;;;9.50;5.07;;;7.40;99.90;;;;;;5094152;28;20507;-59
2021/10/11 08:08:31;;;;;;;10.50;6.37;;;7.40;99.90;;;;;;5094349;28;20466;-59
2021/10/11 08:11:00;;;;;;;7.53;5.53;;;7.50;99.90;;;;;;5075198;28;20538;-59
2021/10/11 08:13:29;;;;;;;9.53;5.00;;;7.70;99.90;;;;;;5078092;28;20482;-59
2021/10/11 08:15:56;;;;;;;7.10;4.57;;;7.80;99.90;;;;;;5085920;28;20442;-60
2021/10/11 08:18:23;;;;;;;7.20;4.57;;;7.90;99.90;;;;;;5088461;28;20988;-59
2021/10/11 08:20:53;;;;;;;6.37;4.40;;;8.00;99.90;;;;;;5093762;28;20446;-59
2021/10/11 08:23:20;;;;;;;8.80;5.40;;;8.10;99.90;;;;;;5077356;28;20455;-59
2021/10/11 08:25:47;;;;;;;8.67;5.00;;;8.20;99.90;;;;;;5080978;28;20511;-59
2021/10/11 08:28:15;;;;;;;6.70;4.57;;;8.30;99.90;;;;;;5091091;28;20470;-59
2021/10/11 08:30:43;;;;;;;6.80;4.63;;;8.40;99.90;;;;;;5091017;28;20829;-60
2021/10/11 08:33:10;;;;;;;12.30;4.63;;;8.60;99.90;;;;;;5093651;28;20461;-61
2021/10/11 08:35:40;;;;;;;4.80;3.80;;;8.80;99.90;;;;;;5078375;28;20554;-60
2021/10/11 08:38:07;;;;;;;5.10;4.10;;;9.40;99.90;;;;;;5082471;28;20478;-60
2021/10/11 08:40:37;;;;;;;6.80;4.70;;;10.00;99.90;;;;;;5088206;28;20486;-60
2021/10/11 08:43:04;;;;;;;7.93;4.37;;;10.40;99.90;;;;;;5074450;28;20951;-59
2021/10/11 08:45:32;;;;;;;7.27;4.83;;;10.60;99.90;;;;;;5074227;28;20500;-59
2021/10/11 08:47:59;;;;;;;7.77;4.17;;;10.60;99.90;;;;;;5072258;28;20575;-59
2021/10/11 08:50:26;;;;;;;6.43;3.83;;;10.90;99.90;;;;;;5073857;28;20523;-59
2021/10/11 08:52:53;;;;;;;7.00;4.20;;;11.60;99.90;;;;;;5089036;28;20450;-60
2021/10/11 08:55:20;;;;;;;6.70;4.90;;;12.00;99.90;;;;;;5086370;28;20911;-60
2021/10/11 08:57:47;;;;;;;7.20;5.50;;;12.70;99.90;;;;;;5072983;28;20470;-60
2021/10/11 09:00:18;;;;;;;11.60;5.93;;;13.50;99.90;;;;;;5072849;28;20956;-60
2021/10/11 09:02:52;;;;;;;12.93;8.00;;;14.00;99.90;;;;;;5072800;28;20515;-60
2021/10/11 09:05:23;;;;;;;10.27;7.23;;;14.40;99.90;;;;;;5073026;28;20523;-61
2021/10/11 09:07:59;;;;;;;11.27;7.93;;;15.00;99.90;;;;;;5072831;28;20904;-60
2021/10/11 09:10:27;;;;;;;15.13;8.97;;;15.10;99.90;;;;;;5088403;28;20533;-60
2021/10/11 09:12:55;;;;;;;16.07;9.20;;;15.20;99.90;;;;;;5077173;28;20478;-60
2021/10/11 09:15:26;;;;;;;15.50;9.10;;;15.40;99.90;;;;;;5092038;28;20483;-60
2021/10/11 09:17:58;;;;;;;14.67;8.00;;;15.60;99.90;;;;;;5113706;27;20522;-59
2021/10/11 09:20:26;;;;;;;12.57;7.40;;;15.10;99.90;;;;;;5088715;28;20453;-59
2021/10/11 09:22:56;;;;;;;15.07;9.83;;;15.60;99.90;;;;;;5085636;28;20461;-60
2021/10/11 09:25:32;;;;;;;13.40;8.93;;;14.40;99.90;;;;;;5092960;28;20431;-60
2021/10/11 09:28:00;;;;;;;13.00;8.60;;;14.00;99.90;;;;;;5092499;28;20462;-59
2021/10/11 09:30:29;;;;;;;13.00;9.03;;;13.80;99.90;;;;;;5090857;28;20579;-59
2021/10/11 09:33:08;;;;;;;12.77;8.30;;;13.20;99.90;;;;;;5091190;28;20445;-59
2021/10/11 09:35:39;;;;;;;13.23;8.23;;;13.40;99.90;;;;;;5113053;28;20533;-59
2021/10/11 09:38:18;;;;;;;11.40;7.90;;;12.80;99.90;;;;;;5099847;28;20816;-59
2021/10/11 09:40:46;;;;;;;10.80;7.57;;;12.30;99.90;;;;;;5092447;28;20507;-59
2021/10/11 09:43:14;;;;;;;12.57;8.10;;;12.50;99.90;;;;;;5089334;28;20455;-59
2021/10/11 09:45:45;;;;;;;14.60;7.43;;;13.00;99.90;;;;;;5094446;28;20437;-59
2021/10/11 09:48:14;;;;;;;13.13;8.50;;;13.20;99.90;;;;;;5112897;28;20464;-59
2021/10/11 09:50:41;;;;;;;12.40;8.13;;;12.70;99.90;;;;;;5099274;28;20496;-60
2021/10/11 09:53:10;;;;;;;14.67;8.07;;;13.00;99.90;;;;;;5092300;28;20450;-59
2021/10/11 09:55:40;;;;;;;11.10;7.30;;;13.30;99.90;;;;;;5092247;28;20538;-60
2021/10/11 09:58:08;;;;;;;10.80;7.17;;;13.80;99.90;;;;;;5092141;28;20535;-60
2021/10/11 10:00:39;;;;;;;13.73;8.80;;;14.20;99.90;;;;;;5092305;28;20449;-59
2021/10/11 10:03:06;;;;;;;11.63;7.80;;;14.00;99.90;;;;;;5091283;28;20449;-60
2021/10/11 10:05:41;;;;;;;11.13;7.20;;;13.80;99.90;;;;;;5092195;28;20434;-59
2021/10/11 10:08:12;;;;;;;13.30;7.77;;;13.90;99.90;;;;;;5092332;28;20542;-60
2021/10/11 10:10:48;;;;;;;13.43;7.90;;;14.70;99.90;;;;;;5089694;28;20446;-60
2021/10/11 10:13:16;;;;;;;12.30;7.70;;;14.30;99.90;;;;;;5092231;28;20453;-59
2021/10/11 10:15:43;;;;;;;10.47;7.33;;;14.10;99.90;;;;;;5093433;28;20473;-60
2021/10/11 10:18:15;;;;;;;10.33;7.20;;;14.60;99.90;;;;;;5085216;28;20531;-60
2021/10/11 10:20:54;;;;;;;12.70;8.63;;;15.00;99.90;;;;;;5077565;28;20450;-60
2021/10/11 10:23:26;;;;;;;11.03;8.10;;;14.80;99.90;;;;;;5103761;28;20486;-59
2021/10/11 10:25:53;;;;;;;9.97;7.60;;;14.30;99.90;;;;;;5088863;28;20438;-60
2021/10/11 10:28:22;;;;;;;13.70;8.03;;;14.50;99.90;;;;;;5091523;28;20465;-59
2021/10/11 10:30:57;;;;;;;9.80;8.03;;;14.50;99.90;;;;;;5081353;28;20853;-59
2021/10/11 10:33:35;;;;;;;10.47;7.77;;;14.40;99.90;;;;;;5101904;28;20452;-59
2021/10/11 10:36:04;;;;;;;11.97;8.00;;;14.50;99.90;;;;;;5087690;28;20579;-60
2021/10/11 10:38:32;;;;;;;10.80;7.60;;;14.50;99.90;;;;;;5111998;28;20473;-59
2021/10/11 10:40:59;;;;;;;10.53;7.27;;;13.90;99.90;;;;;;5096804;28;20449;-60
2021/10/11 10:43:26;;;;;;;10.43;7.73;;;14.20;99.90;;;;;;5091726;28;20948;-59
2021/10/11 10:45:53;;;;;;;9.70;6.70;;;13.70;99.90;;;;;;5091508;28;20809;-59
2021/10/11 10:48:23;;;;;;;11.00;7.63;;;13.60;99.90;;;;;;5091589;28;20469;-59
2021/10/11 10:50:52;;;;;;;9.93;7.77;;;13.70;99.90;;;;;;5091449;28;20817;-59
2021/10/11 10:53:21;;;;;;;11.10;8.10;;;13.70;99.90;;;;;;5083892;28;20533;-60
2021/10/11 10:55:48;;;;;;;12.40;7.97;;;14.00;99.90;;;;;;5103545;28;20487;-60
2021/10/11 10:58:16;;;;;;;11.33;8.10;;;14.10;99.90;;;;;;5111681;28;20464;-60
2021/10/11 11:00:44;;;;;;;11.50;7.90;;;14.00;99.90;;;;;;5091958;28;20441;-59
2021/10/11 11:03:13;;;;;;;14.43;8.70;;;14.20;99.90;;;;;;5091382;28;20496;-60
2021/10/11 11:05:43;;;;;;;12.23;8.57;;;13.70;99.90;;;;;;5091122;28;21042;-60
2021/10/11 11:08:11;;;;;;;13.20;8.50;;;13.20;99.90;;;;;;5090947;28;20553;-59
2021/10/11 11:10:40;;;;;;;10.50;7.07;;;13.20;99.90;;;;;;5090920;28;20457;-60
2021/10/11 11:13:14;;;;;;;12.53;8.53;;;13.20;99.90;;;;;;5091225;28;20480;-60
2021/10/11 11:15:46;;;;;;;14.20;9.10;;;13.00;99.90;;;;;;5091322;28;20485;-60
2021/10/11 11:18:17;;;;;;;12.03;8.80;;;13.00;99.90;;;;;;5090873;28;20581;-59
2021/10/11 11:20:45;;;;;;;13.87;9.73;;;12.60;99.90;;;;;;5090678;28;20483;-60
2021/10/11 11:23:15;;;;;;;13.83;9.13;;;12.30;99.90;;;;;;5091875;28;21033;-60
2021/10/11 11:25:45;;;;;;;13.13;8.90;;;12.20;99.90;;;;;;5081969;28;20502;-59
2021/10/11 11:28:15;;;;;;;13.00;9.53;;;12.40;99.90;;;;;;5111430;28;20469;-58
2021/10/11 11:30:44;;;;;;;12.57;9.37;;;12.40;99.90;;;;;;5109780;28;20474;-59
2021/10/11 11:33:14;;;;;;;15.00;9.50;;;12.60;99.90;;;;;;5095078;28;20537;-59
2021/10/11 11:35:44;;;;;;;14.50;10.03;;;13.00;99.90;;;;;;5094827;28;20488;-60
2021/10/11 11:38:13;;;;;;;15.50;9.70;;;12.90;99.90;;;;;;5093227;28;20516;-59
2021/10/11 11:40:45;;;;;;;16.37;10.03;;;12.50;99.90;;;;;;5074259;28;20934;-60
2021/10/11 11:43:13;;;;;;;15.07;9.97;;;12.40;99.90;;;;;;5075474;28;21005;-59
2021/10/11 11:45:41;;;;;;;15.40;10.10;;;12.50;99.90;;;;;;5074267;28;20508;-59
2021/10/11 11:48:10;;;;;;;15.07;9.77;;;12.40;99.90;;;;;;5074187;28;20536;-60
2021/10/11 11:50:41;;;;;;;15.07;10.20;;;12.10;99.90;;;;;;5087006;28;20511;-60
2021/10/11 11:53:10;;;;;;;16.90;11.17;;;12.40;99.90;;;;;;5088768;28;21041;-59
2021/10/11 11:55:38;;;;;;;16.00;10.23;;;12.70;99.90;;;;;;5091630;28;20486;-58
2021/10/11 11:58:13;;;;;;;15.63;10.70;;;12.80;99.90;;;;;;5074001;28;20470;-60
2021/10/11 12:00:42;;;;;;;14.57;9.50;;;12.60;99.90;;;;;;5073949;28;20460;-60
2021/10/11 12:03:11;;;;;;;17.60;10.27;;;12.60;99.90;;;;;;5074125;28;20519;-61
2021/10/11 12:05:38;;;;;;;16.53;10.00;;;12.80;99.90;;;;;;5079915;28;20442;-60
2021/10/11 12:08:06;;;;;;;15.67;10.40;;;12.60;99.90;;;;;;5093222;28;20470;-60
2021/10/11 12:10:36;;;;;;;15.30;9.93;;;12.50;99.90;;;;;;5091889;28;20445;-60
2021/10/11 12:13:06;;;;;;;17.90;10.20;;;12.60;99.90;;;;;;5094408;28;20836;-60
2021/10/11 12:15:35;;;;;;;14.83;9.80;;;12.70;99.90;;;;;;5094264;28;20478;-59
2021/10/11 12:18:07;;;;;;;15.47;10.20;;;12.70;99.90;;;;;;5091885;28;20542;-59
2021/10/11 12:20:48;;;;;;;18.10;10.47;;;12.50;99.90;;;;;;5087652;28;20447;-60
2021/10/11 12:23:17;;;;;;;15.37;9.43;;;12.60;99.90;;;;;;5073771;28;20455;-60
2021/10/11 12:25:47;;;;;;;15.83;10.07;;;12.80;99.90;;;;;;5073603;28;20853;-60
2021/10/11 12:28:17;;;;;;;16.03;10.70;;;13.00;99.90;;;;;;5077970;28;20470;-60
2021/10/11 12:30:46;;;;;;;19.13;10.50;;;13.00;99.90;;;;;;5093630;28;20445;-59
2021/10/11 12:33:17;;;;;;;15.10;10.03;;;12.50;99.90;;;;;;5093216;28;21004;-59
2021/10/11 12:35:45;;;;;;;15.10;10.90;;;12.60;99.90;;;;;;5076679;28;20471;-59
2021/10/11 12:38:14;;;;;;;15.87;10.03;;;12.70;99.90;;;;;;5092762;28;20474;-60
2021/10/11 12:40:43;;;;;;;16.13;10.10;;;12.90;99.90;;;;;;5092778;28;20492;-59
2021/10/11 12:43:15;;;;;;;17.10;9.73;;;13.10;99.90;;;;;;5091827;28;20454;-60
2021/10/11 12:45:45;;;;;;;14.57;10.13;;;13.30;99.90;;;;;;5093597;28;20450;-60
2021/10/11 12:48:12;;;;;;;17.63;10.30;;;13.20;99.90;;;;;;5084188;28;20462;-59